Saturn, Texas
Current Conditions -  °F | °C
As of 5:15 AM on Monday 22 Dec 2014 (Local Time) from KHYI Reporting Station
Overcast Overcast  
Wind Chill: 13°   Ceiling: 1900
Heat Index: 13°   Visibility: 8mi
Dew Point: 12°   Wind: 12mph
Humidity: 94%   Direction: 210°SSW
Pressure: 29.74"   Gusts: NA
Location:  29.6608°N, 97.4854°W
Report Text: KHYI 221115Z 21010KT 8SM OVC019 13/12 A2974 RMK AO1
Loading
Personal Weather Stations






























Interactive Weather Map New forecast layout! Learn more

10-Day Weather Forecast

Advertisements
Track Severe Weather on mobile